Time;durP1;ratioP1;P1;durP2;ratioP2;P2;SDS_P1;SDS_P2;PMS_P1;PMS_P2;Temp;Humidity;BMP_temperature;BMP_pressure;BME280_temperature;BME280_humidity;BME280_pressure;Samples;Min_cycle;Max_cycle;Signal;HPM_P1;HPM_P2
2022/09/21 00:01:51;;;;;;;;;;;;;;;11.98;76.70;102578.72;5047273;28;19920;-55
2022/09/21 00:04:16;;;;;;;;;;;;;;;11.97;76.80;102578.84;5044325;28;19940;-56
2022/09/21 00:06:41;;;;;;;;;;;;;;;11.92;77.06;102576.59;5047525;28;20394;-56
2022/09/21 00:09:08;;;;;;;;;;;;;;;11.88;77.24;102575.19;5044144;28;19917;-56
2022/09/21 00:11:34;;;;;;;;;;;;;;;11.87;76.74;102570.00;5044520;28;20471;-56
2022/09/21 00:14:03;;;;;;;;;;;;;;;11.87;76.81;102572.66;5044269;28;19951;-55
2022/09/21 00:16:28;;;;;;;;;;;;;;;11.86;76.51;102582.47;5044032;28;20314;-56
2022/09/21 00:18:53;;;;;;;;;;;;;;;11.88;76.51;102577.00;5044043;28;19916;-56
2022/09/21 00:21:18;;;;;;;;;;;;;;;11.85;76.80;102572.78;5044241;28;20569;-56
2022/09/21 00:23:44;;;;;;;;;;;;;;;11.81;77.13;102568.72;5046148;28;19925;-56
2022/09/21 00:26:13;;;;;;;;;;;;;;;11.76;76.86;102573.56;5042584;28;19938;-54
2022/09/21 00:28:39;;;;;;;;;;;;;;;11.71;76.77;102562.50;5040758;28;19924;-56
2022/09/21 00:31:06;;;;;;;;;;;;;;;11.66;76.69;102565.56;5044888;28;20308;-55
2022/09/21 00:33:32;;;;;;;;;;;;;;;11.63;76.71;102570.31;5045667;28;20420;-53
2022/09/21 00:36:06;;;;;;;;;;;;;;;11.63;77.02;102580.97;5045305;28;20035;-55
2022/09/21 00:38:31;;;;;;;;;;;;;;;11.63;76.77;102571.16;5047959;28;19966;-55
2022/09/21 00:40:57;;;;;;;;;;;;;;;11.63;77.05;102572.97;5046015;28;19952;-54
2022/09/21 00:43:22;;;;;;;;;;;;;;;11.62;77.15;102572.13;5043993;28;20431;-55
2022/09/21 00:45:49;;;;;;;;;;;;;;;11.63;76.94;102571.16;5042591;28;19921;-55
2022/09/21 00:48:14;;;;;;;;;;;;;;;11.63;77.22;102572.97;5045523;28;19917;-55
2022/09/21 00:50:42;;;;;;;;;;;;;;;11.53;77.51;102572.94;5045529;28;20003;-56
2022/09/21 00:53:07;;;;;;;;;;;;;;;11.29;77.15;102572.44;5045401;28;20565;-56
2022/09/21 00:55:36;;;;;;;;;;;;;;;11.13;77.35;102575.56;5047574;28;19956;-55
2022/09/21 00:58:07;;;;;;;;;;;;;;;10.90;77.55;102580.16;5044596;28;20369;-57
2022/09/21 01:00:32;;;;;;;;;;;;;;;10.68;78.25;102585.59;5045367;28;20506;-56
2022/09/21 01:03:00;;;;;;;;;;;;;;;10.55;78.77;102581.31;5045809;28;19963;-56
2022/09/21 01:05:25;;;;;;;;;;;;;;;10.49;78.75;102578.34;5044318;28;19924;-56
2022/09/21 01:07:51;;;;;;;;;;;;;;;10.46;79.43;102583.91;5043430;28;19917;-56
2022/09/21 01:10:17;;;;;;;;;;;;;;;10.48;79.12;102581.97;5042776;28;20016;-56
2022/09/21 01:12:42;;;;;;;;;;;;;;;10.52;78.93;102583.38;5039441;28;19929;-56
2022/09/21 01:15:11;;;;;;;;;;;;;;;10.57;79.02;102578.53;5040109;28;19928;-56
2022/09/21 01:17:44;;;;;;;;;;;;;;;10.63;78.68;102585.97;5035588;28;20546;-56
2022/09/21 01:20:15;;;;;;;;;;;;;;;10.69;78.68;102582.81;5040058;28;19920;-54
2022/09/21 01:22:46;;;;;;;;;;;;;;;10.72;78.68;102582.56;5045886;28;20526;-55
2022/09/21 01:25:22;;;;;;;;;;;;;;;10.76;78.95;102586.66;5046666;28;19936;-56
2022/09/21 01:27:56;;;;;;;;;;;;;;;10.80;78.71;102595.22;5047056;28;19967;-56
2022/09/21 01:30:22;;;;;;;;;;;;;;;10.80;79.01;102596.06;5047493;28;19964;-56
2022/09/21 01:32:51;;;;;;;;;;;;;;;10.78;78.78;102592.69;5043817;28;19948;-56
2022/09/21 01:35:17;;;;;;;;;;;;;;;10.77;79.18;102593.66;5042384;28;19965;-56
2022/09/21 01:37:52;;;;;;;;;;;;;;;10.76;79.32;102586.66;5046163;28;20520;-56
2022/09/21 01:40:23;;;;;;;;;;;;;;;10.74;79.60;102591.25;5045753;28;19916;-55
2022/09/21 01:42:50;;;;;;;;;;;;;;;10.73;79.54;102588.72;5045903;28;19916;-55
2022/09/21 01:45:17;;;;;;;;;;;;;;;10.71;79.42;102593.34;5045359;28;19925;-55
2022/09/21 01:47:45;;;;;;;;;;;;;;;10.68;79.73;102585.59;5042269;28;19923;-56
2022/09/21 01:50:12;;;;;;;;;;;;;;;10.65;79.47;102591.16;5046206;28;19952;-54
2022/09/21 01:52:48;;;;;;;;;;;;;;;10.63;79.75;102582.47;5036007;28;20403;-55
2022/09/21 01:55:19;;;;;;;;;;;;;;;10.63;79.24;102583.31;5042023;28;20797;-56
2022/09/21 01:57:47;;;;;;;;;;;;;;;10.62;79.31;102591.41;5045816;28;19935;-56
2022/09/21 02:00:14;;;;;;;;;;;;;;;10.64;79.61;102590.31;5043841;28;19923;-54
2022/09/21 02:02:43;;;;;;;;;;;;;;;10.64;79.48;102592.97;5044553;28;19923;-55
2022/09/21 02:05:09;;;;;;;;;;;;;;;10.59;79.36;102581.06;5043424;28;19991;-55
2022/09/21 02:07:35;;;;;;;;;;;;;;;10.64;79.57;102589.47;5047017;28;19925;-56
2022/09/21 02:10:01;;;;;;;;;;;;;;;10.62;79.30;102589.59;5046087;28;19920;-56
2022/09/21 02:12:27;;;;;;;;;;;;;;;10.63;79.52;102578.00;5044932;28;19924;-55
2022/09/21 02:14:54;;;;;;;;;;;;;;;10.63;79.70;102582.47;5042717;28;20487;-55
2022/09/21 02:17:38;;;;;;;;;;;;;;;10.61;79.51;102581.78;5045950;28;19924;-54
2022/09/21 02:20:06;;;;;;;;;;;;;;;10.58;79.18;102582.88;5044050;28;20478;-55
2022/09/21 02:22:34;;;;;;;;;;;;;;;10.59;79.18;102584.56;5044936;28;19964;-56
2022/09/21 02:25:08;;;;;;;;;;;;;;;10.59;79.48;102586.38;5045010;28;20422;-54
2022/09/21 02:27:42;;;;;;;;;;;;;;;10.57;79.42;102591.81;5043489;28;20380;-55
2022/09/21 02:30:21;;;;;;;;;;;;;;;10.53;79.33;102587.72;5044707;28;19924;-56
2022/09/21 02:32:51;;;;;;;;;;;;;;;10.48;79.27;102582.81;5045193;28;19944;-55
2022/09/21 02:35:35;;;;;;;;;;;;;;;10.48;78.87;102587.28;5044825;28;19932;-55
2022/09/21 02:38:09;;;;;;;;;;;;;;;10.45;79.29;102574.25;5040994;28;19925;-56
2022/09/21 02:40:53;;;;;;;;;;;;;;;10.44;79.03;102580.53;5046208;28;20031;-55
2022/09/21 02:43:22;;;;;;;;;;;;;;;10.43;79.30;102581.50;5044948;28;19925;-55
2022/09/21 02:45:50;;;;;;;;;;;;;;;10.41;79.18;102581.63;5044482;28;20462;-55
2022/09/21 02:48:31;;;;;;;;;;;;;;;10.35;79.35;102581.28;5043133;28;19933;-55
2022/09/21 02:50:57;;;;;;;;;;;;;;;10.27;79.54;102584.56;5045260;28;19925;-55
2022/09/21 02:53:26;;;;;;;;;;;;;;;10.23;79.15;102585.78;5048098;28;19924;-56
2022/09/21 02:55:52;;;;;;;;;;;;;;;10.20;79.07;102583.34;5049392;28;20035;-54
2022/09/21 02:58:18;;;;;;;;;;;;;;;10.19;79.31;102582.50;5048158;28;20016;-56
2022/09/21 03:00:43;;;;;;;;;;;;;;;10.17;79.27;102571.19;5047348;28;19996;-54
2022/09/21 03:03:23;;;;;;;;;;;;;;;10.14;78.86;102571.44;5046349;28;19924;-56
2022/09/21 03:05:51;;;;;;;;;;;;;;;10.12;79.27;102575.16;5043699;28;19912;-56
2022/09/21 03:08:16;;;;;;;;;;;;;;;10.04;79.26;102570.47;5047785;28;20014;-56
2022/09/21 03:10:41;;;;;;;;;;;;;;;10.08;78.96;102577.22;5046772;28;19914;-56
2022/09/21 03:13:10;;;;;;;;;;;;;;;10.07;79.41;102578.19;5052154;28;19916;-56
2022/09/21 03:15:36;;;;;;;;;;;;;;;10.07;79.39;102586.16;5051613;28;20292;-55
2022/09/21 03:18:03;;;;;;;;;;;;;;;10.02;79.23;102587.50;5050947;28;20474;-54
2022/09/21 03:20:29;;;;;;;;;;;;;;;9.98;79.28;102584.25;5051363;28;19920;-53
2022/09/21 03:22:54;;;;;;;;;;;;;;;9.92;79.26;102587.41;5048943;28;19985;-54
2022/09/21 03:25:20;;;;;;;;;;;;;;;9.84;79.28;102589.84;5048390;28;20019;-55
2022/09/21 03:27:45;;;;;;;;;;;;;;;9.78;79.13;102591.16;5044614;28;19917;-56
2022/09/21 03:30:10;;;;;;;;;;;;;;;9.77;79.04;102585.97;5042125;28;19975;-56
2022/09/21 03:32:36;;;;;;;;;;;;;;;9.76;79.12;102582.47;5048995;28;19916;-55
2022/09/21 03:35:01;;;;;;;;;;;;;;;9.77;79.00;102584.16;5047907;28;20376;-55
2022/09/21 03:37:26;;;;;;;;;;;;;;;9.78;79.36;102587.66;5049693;28;20499;-54
2022/09/21 03:39:51;;;;;;;;;;;;;;;9.77;79.47;102588.63;5047650;28;19924;-55
2022/09/21 03:42:16;;;;;;;;;;;;;;;9.77;79.13;102593.91;5046159;28;21354;-55
2022/09/21 03:44:42;;;;;;;;;;;;;;;9.75;78.97;102594.03;5048825;28;19931;-55
2022/09/21 03:47:07;;;;;;;;;;;;;;;9.75;79.28;102594.03;5049220;28;19951;-55
2022/09/21 03:49:33;;;;;;;;;;;;;;;9.74;79.08;102602.13;5045953;28;20006;-55
2022/09/21 03:51:59;;;;;;;;;;;;;;;9.67;79.15;102590.31;5047495;28;19952;-55
2022/09/21 03:54:24;;;;;;;;;;;;;;;9.70;79.26;102604.19;5045461;28;19971;-54
2022/09/21 03:56:50;;;;;;;;;;;;;;;9.68;78.98;102602.63;5044886;28;19920;-55
2022/09/21 03:59:15;;;;;;;;;;;;;;;9.66;79.15;102602.75;5049081;28;19959;-55
2022/09/21 04:01:41;;;;;;;;;;;;;;;9.66;79.29;102596.59;5047497;28;19963;-54
2022/09/21 04:04:06;;;;;;;;;;;;;;;9.65;79.29;102603.72;5047924;28;20002;-55
2022/09/21 04:06:31;;;;;;;;;;;;;;;9.61;79.15;102597.81;5042067;28;19921;-56
2022/09/21 04:08:56;;;;;;;;;;;;;;;9.60;79.43;102596.13;5045003;28;20483;-55
2022/09/21 04:11:21;;;;;;;;;;;;;;;9.57;79.04;102593.72;5046722;28;20397;-55
2022/09/21 04:13:56;;;;;;;;;;;;;;;9.52;79.13;102593.19;5046113;28;19920;-55
2022/09/21 04:16:23;;;;;;;;;;;;;;;9.47;79.34;102594.53;5050725;28;19919;-55
2022/09/21 04:18:49;;;;;;;;;;;;;;;9.38;79.25;102593.47;5050865;28;19947;-56
2022/09/21 04:21:14;;;;;;;;;;;;;;;9.31;79.30;102594.91;5039540;28;19913;-55
2022/09/21 04:23:40;;;;;;;;;;;;;;;9.24;79.03;102593.66;5047484;28;19959;-53
2022/09/21 04:26:05;;;;;;;;;;;;;;;9.18;79.54;102600.28;5047450;28;20329;-55
2022/09/21 04:28:31;;;;;;;;;;;;;;;9.14;79.19;102592.69;5050209;28;19924;-54
2022/09/21 04:30:56;;;;;;;;;;;;;;;9.09;79.16;102597.53;5050711;28;19917;-56
2022/09/21 04:33:22;;;;;;;;;;;;;;;9.02;79.40;102596.31;5050583;28;19955;-56
2022/09/21 04:35:52;;;;;;;;;;;;;;;8.95;79.11;102598.56;5050563;28;19916;-55
2022/09/21 04:38:17;;;;;;;;;;;;;;;8.86;79.19;102600.09;5039903;28;19924;-55
2022/09/21 04:40:43;;;;;;;;;;;;;;;8.81;79.02;102601.41;5044326;28;20395;-55
2022/09/21 04:43:08;;;;;;;;;;;;;;;8.74;79.28;102600.19;5043316;28;20202;-56
2022/09/21 04:45:33;;;;;;;;;;;;;;;8.67;79.38;102600.66;5042413;28;20300;-55
2022/09/21 04:47:58;;;;;;;;;;;;;;;8.61;79.73;102597.59;5048159;28;19999;-55
2022/09/21 04:50:23;;;;;;;;;;;;;;;8.57;79.81;102606.75;5046723;28;20319;-54
2022/09/21 04:52:48;;;;;;;;;;;;;;;8.54;79.67;102604.34;5048800;28;19962;-55
2022/09/21 04:55:14;;;;;;;;;;;;;;;8.51;79.98;102599.28;5048654;28;19930;-53
2022/09/21 04:57:39;;;;;;;;;;;;;;;8.48;79.96;102610.94;5042937;28;19917;-54
2022/09/21 05:00:05;;;;;;;;;;;;;;;8.46;80.34;102609.34;5049648;28;20399;-54
2022/09/21 05:02:30;;;;;;;;;;;;;;;8.44;80.12;102620.06;5050053;28;19956;-52
2022/09/21 05:04:55;;;;;;;;;;;;;;;8.43;80.15;102609.59;5050140;28;20368;-55
2022/09/21 05:07:20;;;;;;;;;;;;;;;8.42;80.20;102610.53;5047083;28;19913;-55
2022/09/21 05:10:04;;;;;;;;;;;;;;;8.40;80.31;102609.81;5044677;28;20359;-56
2022/09/21 05:12:32;;;;;;;;;;;;;;;8.34;80.27;102619.88;5042138;28;19917;-54
2022/09/21 05:14:58;;;;;;;;;;;;;;;8.30;80.32;102623.69;5046449;28;19970;-55
2022/09/21 05:17:23;;;;;;;;;;;;;;;8.27;80.53;102623.91;5046319;28;19928;-56
2022/09/21 05:19:48;;;;;;;;;;;;;;;8.26;80.40;102616.91;5048834;28;20023;-54
2022/09/21 05:22:13;;;;;;;;;;;;;;;8.27;80.33;102621.25;5044005;28;21144;-53
2022/09/21 05:24:38;;;;;;;;;;;;;;;8.30;80.43;102621.03;5043771;28;19925;-54
2022/09/21 05:27:04;;;;;;;;;;;;;;;8.33;80.53;102627.91;5043157;28;19974;-54
2022/09/21 05:29:29;;;;;;;;;;;;;;;8.35;80.64;102621.56;5048383;28;19921;-55
2022/09/21 05:32:00;;;;;;;;;;;;;;;8.37;80.62;102627.59;5046127;28;19917;-55
2022/09/21 05:34:40;;;;;;;;;;;;;;;8.40;80.44;102628.34;5041996;28;19917;-55
2022/09/21 05:37:23;;;;;;;;;;;;;;;8.40;80.53;102637.13;5042050;28;20015;-55
2022/09/21 05:39:49;;;;;;;;;;;;;;;8.41;80.34;102635.34;5040923;28;19960;-55
2022/09/21 05:42:14;;;;;;;;;;;;;;;8.41;80.29;102637.97;5038314;28;19964;-55
2022/09/21 05:44:39;;;;;;;;;;;;;;;8.42;80.41;102637.03;5043291;28;19925;-55
2022/09/21 05:47:20;;;;;;;;;;;;;;;8.42;80.59;102644.97;5040771;28;19921;-55
2022/09/21 05:49:55;;;;;;;;;;;;;;;8.42;80.75;102637.88;5045810;28;19924;-55
2022/09/21 05:52:39;;;;;;;;;;;;;;;8.46;80.96;102644.63;5043865;28;19924;-55
2022/09/21 05:55:28;;;;;;;;;;;;;;;8.49;81.15;102643.56;5043145;28;19916;-55
2022/09/21 05:58:12;;;;;;;;;;;;;;;8.53;80.95;102645.00;5043033;28;19934;-55
2022/09/21 06:00:44;;;;;;;;;;;;;;;8.57;81.02;102649.97;5040871;28;19921;-54
2022/09/21 06:03:15;;;;;;;;;;;;;;;8.62;81.29;102647.81;5039400;28;20475;-55
2022/09/21 06:05:42;;;;;;;;;;;;;;;8.63;81.02;102654.78;5043690;28;19988;-55
2022/09/21 06:08:07;;;;;;;;;;;;;;;8.62;81.57;102652.25;5042507;28;19920;-55
2022/09/21 06:10:33;;;;;;;;;;;;;;;8.68;81.78;102655.31;5042301;28;20348;-55
2022/09/21 06:12:59;;;;;;;;;;;;;;;8.76;82.30;102652.09;5040173;28;20390;-55
2022/09/21 06:15:24;;;;;;;;;;;;;;;8.84;82.59;102656.81;5041416;28;20361;-55
2022/09/21 06:17:49;;;;;;;;;;;;;;;8.95;82.82;102656.84;5040375;28;20388;-55
2022/09/21 06:20:14;;;;;;;;;;;;;;;9.03;83.11;102661.59;5042175;28;20304;-55
2022/09/21 06:22:39;;;;;;;;;;;;;;;9.09;82.96;102661.97;5040765;28;19932;-55
2022/09/21 06:25:05;;;;;;;;;;;;;;;9.17;83.20;102656.06;5047642;28;19973;-56
2022/09/21 06:27:30;;;;;;;;;;;;;;;9.22;82.91;102667.16;5045808;28;19913;-56
2022/09/21 06:29:56;;;;;;;;;;;;;;;9.28;83.07;102656.97;5050675;28;20038;-55
2022/09/21 06:32:21;;;;;;;;;;;;;;;9.41;82.94;102661.31;5044237;28;20383;-56
2022/09/21 06:34:46;;;;;;;;;;;;;;;9.44;83.29;102663.72;5044917;28;19969;-56
2022/09/21 06:37:11;;;;;;;;;;;;;;;9.53;83.56;102661.19;5041285;28;20399;-54
2022/09/21 06:39:36;;;;;;;;;;;;;;;9.62;83.77;102657.00;5041751;28;19953;-56
2022/09/21 06:42:01;;;;;;;;;;;;;;;9.71;83.69;102663.38;5040369;28;20457;-55
2022/09/21 06:44:28;;;;;;;;;;;;;;;9.80;83.74;102657.34;5041580;28;19932;-55
2022/09/21 06:46:53;;;;;;;;;;;;;;;9.90;83.95;102661.00;5041697;28;19923;-56
2022/09/21 06:49:19;;;;;;;;;;;;;;;9.97;83.95;102662.19;5047435;28;19917;-54
2022/09/21 06:51:45;;;;;;;;;;;;;;;10.05;84.21;102665.06;5049432;28;19912;-54
2022/09/21 06:54:11;;;;;;;;;;;;;;;10.11;83.73;102663.72;5046732;28;19920;-56
2022/09/21 06:56:36;;;;;;;;;;;;;;;10.17;84.06;102661.44;5046296;28;19912;-55
2022/09/21 06:59:01;;;;;;;;;;;;;;;10.27;84.15;102668.69;5049332;28;19917;-55
2022/09/21 07:01:27;;;;;;;;;;;;;;;10.36;84.02;102665.28;5045291;28;19924;-54
2022/09/21 07:03:52;;;;;;;;;;;;;;;10.43;84.38;102672.66;5048602;28;20391;-53
2022/09/21 07:06:19;;;;;;;;;;;;;;;10.51;84.18;102670.22;5043093;28;19970;-55
2022/09/21 07:08:45;;;;;;;;;;;;;;;10.59;84.29;102669.56;5040407;28;19924;-56
2022/09/21 07:11:11;;;;;;;;;;;;;;;10.68;84.31;102668.81;5042858;28;20584;-54
2022/09/21 07:13:36;;;;;;;;;;;;;;;10.77;83.88;102667.22;5043998;28;19917;-56
2022/09/21 07:16:06;;;;;;;;;;;;;;;10.86;83.91;102667.28;5043371;28;19920;-53
2022/09/21 07:18:32;;;;;;;;;;;;;;;10.95;83.90;102670.16;5039606;28;20430;-55
2022/09/21 07:20:58;;;;;;;;;;;;;;;11.02;83.77;102671.34;5041506;28;20304;-55
2022/09/21 07:23:23;;;;;;;;;;;;;;;11.08;83.54;102665.50;5040089;28;19931;-56
2022/09/21 07:25:52;;;;;;;;;;;;;;;11.12;83.51;102666.94;5043220;28;19921;-55
2022/09/21 07:28:17;;;;;;;;;;;;;;;11.20;83.69;102664.47;5041903;28;19974;-56
2022/09/21 07:30:42;;;;;;;;;;;;;;;11.28;84.15;102666.50;5044859;28;19921;-54
2022/09/21 07:33:08;;;;;;;;;;;;;;;11.34;84.06;102669.47;5038900;28;19920;-54
2022/09/21 07:35:33;;;;;;;;;;;;;;;11.40;83.63;102660.09;5044506;28;20429;-55
2022/09/21 07:38:00;;;;;;;;;;;;;;;11.42;83.48;102661.66;5044216;28;19924;-54
2022/09/21 07:40:25;;;;;;;;;;;;;;;11.46;82.87;102662.25;5048785;28;20011;-56
2022/09/21 07:42:50;;;;;;;;;;;;;;;11.53;83.02;102665.22;5044201;28;20015;-56
2022/09/21 07:45:15;;;;;;;;;;;;;;;11.60;82.96;102655.75;5040580;28;19929;-56
2022/09/21 07:47:40;;;;;;;;;;;;;;;11.70;83.15;102661.94;5044958;28;20008;-56
2022/09/21 07:50:06;;;;;;;;;;;;;;;11.76;82.92;102662.25;5043683;28;19920;-56
2022/09/21 07:52:31;;;;;;;;;;;;;;;11.81;82.71;102653.88;5041584;28;20031;-56
2022/09/21 07:54:56;;;;;;;;;;;;;;;11.87;82.72;102664.03;5041909;28;20384;-56
2022/09/21 08:00:05;;;;;;;;;;;;;;;12.00;82.34;102655.78;5045662;28;19932;-56
2022/09/21 08:02:31;;;;;;;;;;;;;;;12.03;81.94;102660.84;5044713;28;19929;-54
2022/09/21 08:04:56;;;;;;;;;;;;;;;12.06;81.37;102664.06;5042755;28;19920;-56
2022/09/21 08:07:22;;;;;;;;;;;;;;;12.09;81.48;102661.13;5041258;28;19921;-56
2022/09/21 08:09:49;;;;;;;;;;;;;;;12.15;81.50;102650.94;5042464;28;20498;-56
2022/09/21 08:12:16;;;;;;;;;;;;;;;12.20;81.51;102657.53;5042731;28;19921;-55
2022/09/21 08:14:41;;;;;;;;;;;;;;;12.24;81.27;102652.78;5042522;28;20039;-56
2022/09/21 08:17:06;;;;;;;;;;;;;;;12.29;80.95;102658.53;5043852;28;20023;-57
2022/09/21 08:19:33;;;;;;;;;;;;;;;12.35;80.80;102663.31;5042382;28;20046;-56
2022/09/21 08:21:58;;;;;;;;;;;;;;;12.39;80.81;102659.38;5042669;28;19920;-56
2022/09/21 08:24:25;;;;;;;;;;;;;;;12.43;80.53;102663.44;5048007;28;22335;-55
2022/09/21 08:26:51;;;;;;;;;;;;;;;12.49;80.75;102665.59;5045433;28;19917;-55
2022/09/21 08:29:16;;;;;;;;;;;;;;;12.52;80.51;102662.63;5048898;28;20167;-56
2022/09/21 08:31:42;;;;;;;;;;;;;;;12.56;80.53;102666.69;5049869;28;20611;-54
2022/09/21 08:34:07;;;;;;;;;;;;;;;12.61;80.52;102672.47;5046366;28;19913;-54
2022/09/21 08:36:33;;;;;;;;;;;;;;;12.67;79.98;102663.91;5042399;28;19924;-56
2022/09/21 08:38:58;;;;;;;;;;;;;;;12.75;79.84;102671.22;5044647;28;20376;-55
2022/09/21 08:41:28;;;;;;;;;;;;;;;12.82;79.90;102668.81;5044016;28;19917;-55
2022/09/21 08:44:12;;;;;;;;;;;;;;;12.87;79.34;102663.91;5045283;28;20300;-56
2022/09/21 08:46:40;;;;;;;;;;;;;;;12.92;79.24;102667.00;5044669;28;19916;-54
2022/09/21 08:49:21;;;;;;;;;;;;;;;12.98;79.03;102669.09;5047705;28;19924;-56
2022/09/21 08:51:50;;;;;;;;;;;;;;;13.05;78.71;102670.22;5045104;28;20520;-56
2022/09/21 08:54:19;;;;;;;;;;;;;;;13.11;78.51;102671.47;5042919;28;19919;-56
2022/09/21 08:56:45;;;;;;;;;;;;;;;13.19;78.19;102672.47;5044184;28;20312;-56
2022/09/21 08:59:11;;;;;;;;;;;;;;;13.25;78.28;102681.72;5048806;28;19917;-55
2022/09/21 09:01:46;;;;;;;;;;;;;;;13.30;77.79;102675.00;5042437;28;19927;-56
2022/09/21 09:04:14;;;;;;;;;;;;;;;13.33;77.52;102677.38;5042967;28;19931;-55
2022/09/21 09:06:48;;;;;;;;;;;;;;;13.42;77.54;102682.81;5042608;28;19971;-55
2022/09/21 09:09:16;;;;;;;;;;;;;;;13.50;77.43;102689.13;5043316;28;20378;-56
2022/09/21 09:12:00;;;;;;;;;;;;;;;13.57;77.37;102684.88;5043113;28;19963;-56
2022/09/21 09:14:28;;;;;;;;;;;;;;;13.63;77.30;102683.47;5043880;28;19917;-57
2022/09/21 09:16:56;;;;;;;;;;;;;;;13.72;77.13;102687.94;5038865;28;19924;-57
2022/09/21 09:19:27;;;;;;;;;;;;;;;13.83;76.54;102685.06;5044593;28;19927;-57
2022/09/21 09:21:54;;;;;;;;;;;;;;;13.91;76.46;102684.34;5043570;28;19992;-56
2022/09/21 09:24:37;;;;;;;;;;;;;;;14.04;76.17;102687.50;5042768;28;19963;-56
2022/09/21 09:27:14;;;;;;;;;;;;;;;14.21;75.50;102693.91;5043528;28;19920;-56
2022/09/21 09:29:58;;;;;;;;;;;;;;;14.36;74.74;102688.88;5053718;28;19915;-57
2022/09/21 09:32:28;;;;;;;;;;;;;;;14.48;73.92;102691.25;5042650;28;19928;-56
2022/09/21 09:34:59;;;;;;;;;;;;;;;14.61;73.59;102684.69;5043736;28;19917;-56
2022/09/21 09:37:29;;;;;;;;;;;;;;;14.75;73.08;102686.84;5047649;28;20011;-55
2022/09/21 09:39:56;;;;;;;;;;;;;;;14.88;72.69;102692.63;5044883;28;19913;-56
2022/09/21 09:42:21;;;;;;;;;;;;;;;15.02;72.30;102693.91;5045090;28;19913;-56
2022/09/21 09:45:05;;;;;;;;;;;;;;;15.16;71.37;102688.84;5049248;28;19923;-55
2022/09/21 09:47:31;;;;;;;;;;;;;;;15.31;70.20;102683.78;5045110;28;19912;-54
2022/09/21 09:49:56;;;;;;;;;;;;;;;15.44;70.42;102691.41;5043057;28;19973;-57
2022/09/21 09:52:21;;;;;;;;;;;;;;;15.58;70.68;102701.56;5048682;28;20009;-56
2022/09/21 09:54:47;;;;;;;;;;;;;;;15.70;69.47;102694.94;5049383;28;19912;-57
2022/09/21 09:57:13;;;;;;;;;;;;;;;15.76;69.02;102694.31;5049156;28;20334;-57
2022/09/21 09:59:42;;;;;;;;;;;;;;;15.84;68.76;102688.13;5047740;28;19920;-57
2022/09/21 10:02:23;;;;;;;;;;;;;;;15.95;66.19;102687.88;5048800;28;19916;-57
2022/09/21 10:04:58;;;;;;;;;;;;;;;15.97;65.73;102687.72;5043388;28;19921;-57
2022/09/21 10:07:32;;;;;;;;;;;;;;;15.96;66.69;102688.72;5044732;28;19924;-56
2022/09/21 10:09:57;;;;;;;;;;;;;;;15.91;65.58;102691.88;5042730;28;20292;-57
2022/09/21 10:12:24;;;;;;;;;;;;;;;15.89;66.13;102693.00;5047428;28;19916;-57
2022/09/21 10:14:51;;;;;;;;;;;;;;;15.94;66.06;102688.88;5045348;28;19919;-57
2022/09/21 10:17:17;;;;;;;;;;;;;;;16.04;65.49;102692.25;5048462;28;20296;-56
2022/09/21 10:19:43;;;;;;;;;;;;;;;15.99;64.89;102688.41;5047894;28;19950;-57
2022/09/21 10:22:13;;;;;;;;;;;;;;;15.95;64.56;102684.34;5048071;28;19999;-56
2022/09/21 10:24:45;;;;;;;;;;;;;;;15.93;64.52;102681.00;5045660;28;19925;-57
2022/09/21 10:27:15;;;;;;;;;;;;;;;15.96;63.97;102680.69;5041950;28;19921;-57
2022/09/21 10:29:45;;;;;;;;;;;;;;;15.95;62.45;102677.16;5040707;28;19947;-58
2022/09/21 10:32:13;;;;;;;;;;;;;;;15.98;62.59;102674.16;5038392;28;19943;-56
2022/09/21 10:34:40;;;;;;;;;;;;;;;16.04;62.83;102668.16;5040876;28;19917;-57
2022/09/21 10:37:24;;;;;;;;;;;;;;;16.08;61.78;102668.66;5044983;28;19967;-56
2022/09/21 10:39:49;;;;;;;;;;;;;;;16.09;60.71;102668.50;5037674;28;19924;-58
2022/09/21 10:42:16;;;;;;;;;;;;;;;16.12;60.66;102670.00;5039586;28;19924;-57
2022/09/21 10:44:43;;;;;;;;;;;;;;;16.17;60.81;102673.03;5045038;28;19995;-57
2022/09/21 10:47:31;;;;;;;;;;;;;;;16.19;61.13;102671.06;5042493;28;19921;-57
2022/09/21 10:49:59;;;;;;;;;;;;;;;16.22;61.40;102657.31;5021873;28;19943;-57
2022/09/21 10:52:30;;;;;;;;;;;;;;;16.26;61.98;102661.34;5038793;28;20017;-58
2022/09/21 10:54:56;;;;;;;;;;;;;;;16.26;61.65;102666.72;5039329;28;19932;-57
2022/09/21 10:57:23;;;;;;;;;;;;;;;16.22;61.73;102662.69;5043161;28;19914;-58
2022/09/21 10:59:48;;;;;;;;;;;;;;;16.17;62.28;102659.63;5039554;28;20439;-57
2022/09/21 11:02:32;;;;;;;;;;;;;;;16.10;62.58;102670.16;5039967;28;19917;-57
2022/09/21 11:05:10;;;;;;;;;;;;;;;16.08;62.16;102660.63;5040633;28;19958;-57
2022/09/21 11:07:42;;;;;;;;;;;;;;;16.05;62.26;102660.94;5043572;28;19952;-57
2022/09/21 11:10:28;;;;;;;;;;;;;;;16.04;61.68;102659.25;5039632;28;19917;-58
2022/09/21 11:13:03;;;;;;;;;;;;;;;16.05;61.90;102666.31;5046413;28;19919;-57
2022/09/21 11:15:29;;;;;;;;;;;;;;;16.03;62.47;102654.91;5052205;28;20384;-57
2022/09/21 11:17:57;;;;;;;;;;;;;;;15.97;61.98;102655.56;5050393;28;19972;-55
2022/09/21 11:20:40;;;;;;;;;;;;;;;15.93;61.63;102654.22;5043686;28;19917;-57
2022/09/21 11:23:23;;;;;;;;;;;;;;;15.99;61.53;102656.25;5040337;28;19924;-58
2022/09/21 11:25:54;;;;;;;;;;;;;;;16.06;60.97;102657.25;5049621;28;19939;-58
2022/09/21 11:28:29;;;;;;;;;;;;;;;16.17;61.00;102659.63;5042857;28;19913;-57
2022/09/21 11:31:00;;;;;;;;;;;;;;;16.28;60.88;102648.63;5047238;28;19924;-58
2022/09/21 11:33:43;;;;;;;;;;;;;;;16.39;60.46;102652.81;5045980;28;20077;-57
2022/09/21 11:36:16;;;;;;;;;;;;;;;16.47;59.38;102652.00;5045416;28;20487;-57
2022/09/21 11:38:44;;;;;;;;;;;;;;;16.54;58.46;102650.34;5045417;28;20435;-56
2022/09/21 11:41:22;;;;;;;;;;;;;;;16.60;58.19;102649.69;5047933;28;20519;-55
2022/09/21 11:44:11;;;;;;;;;;;;;;;16.66;57.79;102646.34;5045423;28;20378;-56
2022/09/21 11:47:03;;;;;;;;;;;;;;;16.72;57.74;102640.31;5046461;28;19987;-55
2022/09/21 11:49:47;;;;;;;;;;;;;;;16.78;57.16;102628.94;5041195;28;19917;-58
2022/09/21 11:52:21;;;;;;;;;;;;;;;16.84;56.37;102638.16;5045368;28;19924;-57
2022/09/21 11:55:05;;;;;;;;;;;;;;;16.88;56.20;102632.28;5037993;28;20029;-58
2022/09/21 11:57:36;;;;;;;;;;;;;;;16.94;56.42;102631.59;5044369;28;20406;-56
2022/09/21 12:00:31;;;;;;;;;;;;;;;17.00;56.19;102630.94;5045475;28;19921;-57
2022/09/21 12:03:02;;;;;;;;;;;;;;;17.06;55.70;102628.56;5036365;28;19947;-58
2022/09/21 12:05:47;;;;;;;;;;;;;;;17.09;54.80;102630.94;5039697;28;20451;-58
2022/09/21 12:08:22;;;;;;;;;;;;;;;17.10;54.74;102627.25;5031709;28;20364;-59
2022/09/21 12:10:48;;;;;;;;;;;;;;;17.14;55.26;102620.53;5048445;28;19916;-57
2022/09/21 12:13:19;;;;;;;;;;;;;;;17.09;55.14;102625.56;5043707;28;20415;-57
2022/09/21 12:15:50;;;;;;;;;;;;;;;16.97;55.35;102617.00;5048409;28;19967;-57
2022/09/21 12:18:19;;;;;;;;;;;;;;;16.86;55.36;102622.72;5045522;28;19936;-57
2022/09/21 12:20:50;;;;;;;;;;;;;;;16.80;54.85;102613.50;5048717;28;20414;-57
2022/09/21 12:23:18;;;;;;;;;;;;;;;16.81;55.35;102617.03;5041608;28;20011;-57
2022/09/21 12:25:46;;;;;;;;;;;;;;;16.76;55.29;102609.47;5044858;28;19921;-58
2022/09/21 12:28:34;;;;;;;;;;;;;;;16.77;54.66;102608.50;5043589;28;20443;-56
2022/09/21 12:31:05;;;;;;;;;;;;;;;16.83;53.26;102609.66;5043616;28;19917;-58
2022/09/21 12:33:36;;;;;;;;;;;;;;;16.85;53.06;102600.44;5043541;28;19935;-57
2022/09/21 12:36:21;;;;;;;;;;;;;;;16.95;53.44;102594.88;5051644;28;19928;-57
2022/09/21 12:38:47;;;;;;;;;;;;;;;17.02;54.19;102598.53;5042534;28;19916;-57
2022/09/21 12:41:30;;;;;;;;;;;;;;;17.01;54.26;102594.19;5043563;28;19913;-57
2022/09/21 12:44:03;;;;;;;;;;;;;;;17.00;54.22;102597.88;5050777;28;19916;-57
2022/09/21 12:46:31;;;;;;;;;;;;;;;16.98;54.25;102590.00;5043812;28;20015;-57
2022/09/21 12:48:58;;;;;;;;;;;;;;;16.98;54.46;102594.53;5041683;28;19931;-58
2022/09/21 12:51:33;;;;;;;;;;;;;;;17.01;54.95;102586.13;5039695;28;19943;-58
2022/09/21 12:53:59;;;;;;;;;;;;;;;17.06;54.53;102585.63;5043168;28;19963;-56